Time;durP1;ratioP1;P1;durP2;ratioP2;P2;SDS_P1;SDS_P2;PMS_P1;PMS_P2;Temp;Humidity;BMP_temperature;BMP_pressure;BME280_temperature;BME280_humidity;BME280_pressure;Samples;Min_cycle;Max_cycle;Signal;HPM_P1;HPM_P2
2023/09/04 00:02:18;;;;;;;0.10;0.10;;;;;;;17.92;100.00;102727.69;10351819;28;20108;-78
2023/09/04 00:07:20;;;;;;;0.13;0.10;;;;;;;17.86;100.00;102717.13;10365045;28;20095;-80
2023/09/04 00:12:21;;;;;;;0.00;0.00;;;;;;;17.83;100.00;102727.50;10357021;28;20731;-79
2023/09/04 00:17:23;;;;;;;0.10;0.10;;;;;;;17.54;100.00;102727.59;10332756;28;20100;-79
2023/09/04 00:22:27;;;;;;;0.00;0.00;;;;;;;17.61;100.00;102726.94;10350480;28;20089;-79
2023/09/04 00:27:28;;;;;;;0.38;0.10;;;;;;;16.87;100.00;102719.69;10369400;28;20096;-79
2023/09/04 00:32:30;;;;;;;0.35;0.10;;;;;;;17.50;100.00;102720.56;10369707;28;20046;-79
2023/09/04 00:37:32;;;;;;;0.00;0.00;;;;;;;17.41;100.00;102727.31;10356189;28;20053;-79
2023/09/04 00:42:33;;;;;;;0.00;0.00;;;;;;;17.37;100.00;102725.47;10345113;28;20050;-79
2023/09/04 00:47:35;;;;;;;1.27;0.20;;;;;;;17.51;100.00;102717.13;10368010;28;20041;-78
2023/09/04 00:52:37;;;;;;;0.00;0.00;;;;;;;17.00;100.00;102715.75;10352825;28;20050;-79
2023/09/04 00:57:41;;;;;;;0.00;0.00;;;;;;;16.60;100.00;102720.66;10349558;28;20055;-80
2023/09/04 01:02:43;;;;;;;0.00;0.00;;;;;;;16.97;100.00;102719.16;10342917;28;20061;-79
2023/09/04 01:07:46;;;;;;;0.00;0.00;;;;;;;16.97;100.00;102713.94;10347552;28;20053;-79
2023/09/04 01:13:11;;;;;;;0.10;0.05;;;;;;;16.96;100.00;102705.25;10351520;28;20065;-79
2023/09/04 01:18:13;;;;;;;0.00;0.00;;;;;;;17.34;100.00;102712.34;10350014;28;20054;-79
2023/09/04 01:23:15;;;;;;;0.00;0.00;;;;;;;17.29;100.00;102716.56;10351729;28;20512;-79
2023/09/04 01:28:31;;;;;;;0.08;0.00;;;;;;;17.13;100.00;102716.13;10331620;28;20045;-79
2023/09/04 01:33:39;;;;;;;0.90;0.10;;;;;;;17.02;100.00;102717.53;10349328;28;20046;-80
2023/09/04 01:38:43;;;;;;;0.00;0.00;;;;;;;17.07;100.00;102712.47;10371781;28;20042;-80
2023/09/04 01:43:45;;;;;;;0.35;0.13;;;;;;;16.71;100.00;102716.66;10351348;28;20081;-80
2023/09/04 01:48:49;;;;;;;0.13;0.13;;;;;;;16.94;100.00;102708.66;10346116;28;20358;-79
2023/09/04 01:53:51;;;;;;;0.45;0.30;;;;;;;16.83;100.00;102710.91;10347187;28;20050;-79
2023/09/04 01:58:54;;;;;;;0.00;0.00;;;;;;;16.81;100.00;102704.78;10357124;28;20133;-79
2023/09/04 02:03:57;;;;;;;0.35;0.17;;;;;;;16.80;100.00;102716.91;10336517;28;20053;-80
2023/09/04 02:09:00;;;;;;;0.10;0.10;;;;;;;16.62;100.00;102716.38;10345136;28;20035;-80
2023/09/04 02:14:02;;;;;;;0.10;0.10;;;;;;;16.84;100.00;102711.78;10343881;28;20092;-79
2023/09/04 02:19:04;;;;;;;0.00;0.00;;;;;;;16.80;100.00;102705.63;10345704;28;20046;-79
2023/09/04 02:24:05;;;;;;;0.10;0.10;;;;;;;16.76;100.00;102689.03;10359281;28;20058;-77
2023/09/04 02:29:07;;;;;;;0.15;0.10;;;;;;;16.57;100.00;102689.34;10352243;28;20080;-79
2023/09/04 02:34:09;;;;;;;0.10;0.10;;;;;;;16.75;100.00;102700.28;10345234;28;20519;-79
2023/09/04 02:39:11;;;;;;;0.00;0.00;;;;;;;16.71;100.00;102680.22;10353858;28;20061;-79
2023/09/04 02:44:13;;;;;;;0.00;0.00;;;;;;;16.95;100.00;102684.38;10347831;28;20058;-79
2023/09/04 02:49:14;;;;;;;0.00;0.00;;;;;;;16.65;100.00;102685.22;10365856;28;20034;-79
2023/09/04 02:54:16;;;;;;;0.35;0.32;;;;;;;16.31;100.00;102674.69;10362630;28;20757;-80
2023/09/04 02:59:18;;;;;;;0.20;0.20;;;;;;;16.52;100.00;102684.00;10343949;28;20097;-80
2023/09/04 03:04:19;;;;;;;0.00;0.00;;;;;;;16.15;100.00;102677.69;10349328;28;20046;-79
2023/09/04 03:09:21;;;;;;;0.73;0.10;;;;;;;15.99;100.00;102672.00;10357778;28;20049;-80
2023/09/04 03:14:22;;;;;;;0.10;0.03;;;;;;;16.43;100.00;102674.19;10342030;28;20157;-80
2023/09/04 03:19:24;;;;;;;0.10;0.10;;;;;;;16.10;100.00;102668.84;10336450;28;20069;-80
2023/09/04 03:24:28;;;;;;;0.00;0.00;;;;;;;16.16;100.00;102664.72;10354659;28;20042;-80
2023/09/04 03:29:31;;;;;;;0.00;0.00;;;;;;;16.02;100.00;102656.47;10344301;28;20517;-80
2023/09/04 03:34:33;;;;;;;0.00;0.00;;;;;;;16.47;100.00;102664.75;10350571;28;20046;-79
2023/09/04 03:39:37;;;;;;;0.10;0.10;;;;;;;16.18;100.00;102663.06;10347675;28;20046;-81
2023/09/04 03:44:38;;;;;;;0.00;0.00;;;;;;;16.17;100.00;102662.97;10343399;28;20266;-79
2023/09/04 03:49:40;;;;;;;0.00;0.00;;;;;;;16.28;100.00;102663.31;10363594;28;20049;-79
2023/09/04 03:54:42;;;;;;;0.20;0.08;;;;;;;15.94;100.00;102662.28;10336466;28;20082;-79
2023/09/04 03:59:44;;;;;;;0.40;0.30;;;;;;;15.65;100.00;102659.59;10367026;28;20424;-80
2023/09/04 04:04:46;;;;;;;0.00;0.00;;;;;;;16.24;100.00;102664.06;10349921;28;20068;-79
2023/09/04 04:09:47;;;;;;;0.00;0.00;;;;;;;16.30;100.00;102666.84;10353156;28;20046;-79
2023/09/04 04:14:53;;;;;;;0.00;0.00;;;;;;;16.00;100.00;102657.25;10365995;28;20121;-78
2023/09/04 04:19:55;;;;;;;0.00;0.00;;;;;;;15.84;100.00;102661.97;10340616;28;20092;-80
2023/09/04 04:24:57;;;;;;;0.17;0.10;;;;;;;15.89;100.00;102649.13;10347200;28;20052;-79
2023/09/04 04:29:58;;;;;;;0.10;0.10;;;;;;;15.88;100.00;102649.09;10349262;28;20049;-78
2023/09/04 04:35:05;;;;;;;0.00;0.00;;;;;;;15.88;100.00;102647.34;10347408;28;20495;-79
2023/09/04 04:40:07;;;;;;;0.20;0.10;;;;;;;15.83;100.00;102648.94;10346389;28;20050;-81
2023/09/04 04:45:11;;;;;;;0.00;0.00;;;;;;;15.86;100.00;102649.91;10342360;28;20128;-80
2023/09/04 04:50:13;;;;;;;0.00;0.00;;;;;;;15.95;100.00;102648.44;10338035;28;20508;-82
2023/09/04 04:55:14;;;;;;;0.00;0.00;;;;;;;15.99;100.00;102645.09;10357506;28;20469;-81
2023/09/04 05:00:18;;;;;;;0.43;0.22;;;;;;;16.04;100.00;102648.75;10369195;28;20030;-79
2023/09/04 05:05:22;;;;;;;0.20;0.13;;;;;;;16.35;100.00;102639.25;10348851;28;20084;-80
2023/09/04 05:10:24;;;;;;;0.10;0.10;;;;;;;16.45;100.00;102630.91;10355859;28;20560;-80
2023/09/04 05:15:26;;;;;;;0.05;0.00;;;;;;;16.29;100.00;102629.56;10346459;28;20046;-80
2023/09/04 05:20:28;;;;;;;0.00;0.00;;;;;;;16.29;100.00;102636.47;10348206;28;20073;-80
2023/09/04 05:25:29;;;;;;;0.10;0.10;;;;;;;16.24;100.00;102638.06;10345729;28;20161;-77
2023/09/04 05:30:32;;;;;;;0.00;0.00;;;;;;;16.17;100.00;102643.09;10340977;28;20416;-80
2023/09/04 05:35:34;;;;;;;0.00;0.00;;;;;;;16.16;100.00;102636.13;10367754;28;20539;-78
2023/09/04 05:40:36;;;;;;;0.10;0.10;;;;;;;16.73;100.00;102629.06;10357400;28;20054;-78
2023/09/04 05:45:39;;;;;;;0.00;0.00;;;;;;;16.96;100.00;102632.34;10350538;28;20103;-79
2023/09/04 05:50:40;;;;;;;0.20;0.00;;;;;;;17.30;100.00;102645.38;10365035;28;20050;-80
2023/09/04 05:55:42;;;;;;;0.10;0.10;;;;;;;17.13;100.00;102635.41;10360007;28;20382;-80
2023/09/04 06:00:44;;;;;;;0.45;0.17;;;;;;;17.85;100.00;102645.88;10351016;28;20100;-79
2023/09/04 06:05:46;;;;;;;0.35;0.20;;;;;;;18.10;100.00;102656.88;10362468;28;20574;-77
2023/09/04 06:10:47;;;;;;;0.10;0.10;;;;;;;18.36;100.00;102644.41;10365382;28;20056;-79
2023/09/04 06:15:50;;;;;;;0.57;0.38;;;;;;;18.86;100.00;102642.81;10369204;28;20050;-80
2023/09/04 06:20:52;;;;;;;0.22;0.22;;;;;;;18.97;100.00;102638.69;10350672;28;20037;-79
2023/09/04 06:25:53;;;;;;;0.10;0.10;;;;;;;19.24;100.00;102628.69;10342157;28;20406;-79
2023/09/04 06:30:56;;;;;;;0.17;0.17;;;;;;;19.54;100.00;102633.59;10369747;28;20049;-79
2023/09/04 06:35:57;;;;;;;0.45;0.45;;;;;;;19.75;100.00;102637.38;10366130;28;20080;-80
2023/09/04 06:40:59;;;;;;;0.47;0.47;;;;;;;20.13;100.00;102644.94;10371639;28;20088;-79
2023/09/04 06:46:02;;;;;;;0.20;0.20;;;;;;;19.66;100.00;102652.06;10373355;28;20501;-80
2023/09/04 06:51:04;;;;;;;0.95;0.32;;;;;;;20.43;100.00;102646.22;10368788;28;20042;-80
2023/09/04 06:56:05;;;;;;;0.98;0.63;;;;;;;20.82;100.00;102644.06;10355993;28;20057;-80
2023/09/04 07:01:07;;;;;;;0.35;0.32;;;;;;;21.46;100.00;102642.91;10374019;28;20115;-80
2023/09/04 07:06:08;;;;;;;0.63;0.30;;;;;;;22.74;100.00;102641.06;10351176;28;20050;-80
2023/09/04 07:11:10;;;;;;;1.15;0.47;;;;;;;22.93;100.00;102651.59;10354255;28;20042;-80
2023/09/04 07:16:11;;;;;;;0.50;0.50;;;;;;;23.72;100.00;102649.00;10345822;28;20053;-79
2023/09/04 07:21:33;;;;;;;0.68;0.55;;;;;;;24.28;100.00;102654.16;10347155;28;20040;-78
2023/09/04 07:26:35;;;;;;;0.52;0.43;;;;;;;24.12;100.00;102642.81;10367106;28;20050;-77
2023/09/04 07:31:36;;;;;;;0.52;0.52;;;;;;;24.35;100.00;102646.22;10359786;28;20209;-79
2023/09/04 07:36:38;;;;;;;1.17;0.65;;;;;;;25.02;100.00;102641.50;10341142;28;20113;-79
2023/09/04 07:41:39;;;;;;;0.63;0.63;;;;;;;25.18;100.00;102650.16;10356630;28;20038;-80
2023/09/04 07:46:41;;;;;;;0.38;0.20;;;;;;;25.26;100.00;102652.75;10365733;28;20080;-80
2023/09/04 07:51:42;;;;;;;0.65;0.57;;;;;;;26.04;100.00;102662.56;10304862;28;20116;-80
2023/09/04 07:56:44;;;;;;;0.50;0.30;;;;;;;25.35;100.00;102657.06;10199972;28;20057;-79
2023/09/04 08:01:46;;;;;;;0.00;0.00;;;;;;;26.18;100.00;102657.19;10222692;28;20505;-82
2023/09/04 08:06:47;;;;;;;0.13;0.13;;;;;;;26.06;100.00;102655.53;10325147;28;20049;-79
2023/09/04 08:11:49;;;;;;;0.73;0.50;;;;;;;26.57;100.00;102658.44;10324300;28;20100;-80
2023/09/04 08:16:51;;;;;;;1.38;0.63;;;;;;;26.50;100.00;102662.06;10302758;28;20053;-81
2023/09/04 08:21:52;;;;;;;0.20;0.10;;;;;;;27.34;100.00;102656.41;10364378;28;20045;-82
2023/09/04 08:26:54;;;;;;;0.38;0.22;;;;;;;27.08;100.00;102648.91;10341987;28;20366;-81
2023/09/04 08:31:55;;;;;;;0.43;0.40;;;;;;;27.53;100.00;102645.53;10355953;28;20042;-80
2023/09/04 08:36:57;;;;;;;0.50;0.20;;;;;;;27.68;100.00;102641.72;10359289;28;20819;-81
2023/09/04 08:41:58;;;;;;;0.20;0.20;;;;;;;28.25;100.00;102639.78;10364207;28;20045;-80
2023/09/04 08:47:00;;;;;;;0.70;0.30;;;;;;;28.15;100.00;102628.47;10362403;28;20050;-78
2023/09/04 08:52:03;;;;;;;0.32;0.22;;;;;;;28.23;100.00;102621.22;10359989;28;20046;-79
2023/09/04 08:57:05;;;;;;;0.00;0.00;;;;;;;28.11;100.00;102625.00;10363542;28;20077;-81
2023/09/04 09:02:14;;;;;;;0.10;0.10;;;;;;;29.09;100.00;102613.09;10363181;28;20681;-79
2023/09/04 09:07:16;;;;;;;0.17;0.10;;;;;;;28.31;100.00;102614.00;10360366;28;20057;-79
2023/09/04 09:12:18;;;;;;;0.13;0.10;;;;;;;28.09;100.00;102612.72;10360678;28;20480;-81
2023/09/04 09:17:19;;;;;;;0.20;0.10;;;;;;;28.02;100.00;102618.09;10359084;28;20045;-79
2023/09/04 09:22:21;;;;;;;0.10;0.10;;;;;;;28.87;100.00;102617.19;10359386;28;20053;-80
2023/09/04 09:27:24;;;;;;;0.00;0.00;;;;;;;29.15;100.00;102619.16;10341050;28;20096;-81
2023/09/04 09:32:30;;;;;;;0.93;0.22;;;;;;;28.79;100.00;102607.63;10352866;28;20886;-79
2023/09/04 09:37:32;;;;;;;0.45;0.30;;;;;;;29.44;100.00;102624.63;10352200;28;20417;-77
2023/09/04 09:42:34;;;;;;;0.43;0.10;;;;;;;29.90;100.00;102616.25;10342466;28;20049;-78
2023/09/04 09:47:36;;;;;;;0.00;0.00;;;;;;;30.17;100.00;102603.13;10353427;28;20049;-80
2023/09/04 09:52:38;;;;;;;0.30;0.17;;;;;;;30.02;100.00;102600.00;10358845;28;20125;-78
2023/09/04 09:57:39;;;;;;;0.60;0.20;;;;;;;29.90;100.00;102592.34;10361052;28;20730;-78
2023/09/04 10:02:41;;;;;;;0.17;0.10;;;;;;;29.23;100.00;102580.91;10361450;28;20104;-77
2023/09/04 10:07:48;;;;;;;0.32;0.20;;;;;;;30.42;100.00;102570.47;10346236;28;20061;-77
2023/09/04 10:12:56;;;;;;;0.32;0.20;;;;;;;29.61;100.00;102570.16;10371070;28;20476;-78
2023/09/04 10:18:12;;;;;;;0.30;0.10;;;;;;;30.44;100.00;102568.63;10363544;28;20052;-78
2023/09/04 10:23:19;;;;;;;0.00;0.00;;;;;;;30.05;100.00;102576.00;10353206;28;20072;-78
2023/09/04 10:28:30;;;;;;;0.00;0.00;;;;;;;31.19;100.00;102583.91;10344661;28;20397;-78
2023/09/04 10:33:44;;;;;;;0.10;0.10;;;;;;;30.87;100.00;102577.88;10371525;28;20042;-77
2023/09/04 10:38:45;;;;;;;0.40;0.38;;;;;;;30.82;100.00;102575.41;10352077;28;20049;-77
2023/09/04 10:43:47;;;;;;;0.98;0.38;;;;;;;30.80;100.00;102560.38;10357490;28;20501;-78
2023/09/04 10:48:50;;;;;;;0.35;0.20;;;;;;;31.39;100.00;102558.41;10362531;28;20050;-78
2023/09/04 10:53:52;;;;;;;0.15;0.10;;;;;;;31.85;100.00;102554.03;10344886;28;20061;-78
2023/09/04 10:59:02;;;;;;;0.00;0.00;;;;;;;31.41;100.00;102553.88;10350429;28;20127;-77
2023/09/04 11:04:06;;;;;;;0.68;0.45;;;;;;;31.61;100.00;102548.66;10352190;28;20049;-76
2023/09/04 11:09:11;;;;;;;0.10;0.10;;;;;;;31.48;100.00;102548.28;10350032;28;20038;-78
2023/09/04 11:14:13;;;;;;;0.10;0.10;;;;;;;30.84;100.00;102551.38;10364838;28;20046;-78
2023/09/04 11:19:16;;;;;;;1.08;0.35;;;;;;;31.15;100.00;102531.72;10352011;28;20097;-79
2023/09/04 11:24:19;;;;;;;0.30;0.30;;;;;;;31.58;100.00;102538.13;10355507;28;20270;-78
2023/09/04 11:29:21;;;;;;;0.35;0.28;;;;;;;31.35;100.00;102530.97;10347276;28;20041;-77
2023/09/04 11:34:22;;;;;;;0.52;0.25;;;;;;;31.62;100.00;102518.44;10346819;28;20061;-79
2023/09/04 11:39:24;;;;;;;0.25;0.00;;;;;;;30.73;100.00;102517.16;10361950;28;20460;-80
2023/09/04 11:44:25;;;;;;;0.28;0.10;;;;;;;30.88;100.00;102526.41;10360700;28;20054;-79
2023/09/04 11:49:27;;;;;;;0.30;0.10;;;;;;;31.14;100.00;102514.00;10355269;28;20068;-78
2023/09/04 11:54:29;;;;;;;0.00;0.00;;;;;;;31.61;100.00;102507.84;10364505;28;20041;-78
2023/09/04 11:59:35;;;;;;;0.20;0.20;;;;;;;30.07;100.00;102494.44;10356592;28;20046;-78
2023/09/04 12:04:36;;;;;;;0.40;0.22;;;;;;;30.68;100.00;102498.69;10352766;28;20057;-79
2023/09/04 12:09:38;;;;;;;0.10;0.00;;;;;;;30.78;100.00;102498.41;10366182;28;20068;-80
2023/09/04 12:14:44;;;;;;;0.00;0.00;;;;;;;30.67;100.00;102478.34;10367181;28;20086;-77
2023/09/04 12:19:46;;;;;;;0.38;0.30;;;;;;;30.93;100.00;102479.22;10364225;28;20034;-77
2023/09/04 12:25:08;;;;;;;1.45;0.43;;;;;;;31.15;100.00;102471.34;10346775;28;20104;-77
2023/09/04 12:30:11;;;;;;;1.00;0.30;;;;;;;30.72;100.00;102470.19;10363040;28;20053;-77
2023/09/04 12:35:12;;;;;;;0.00;0.00;;;;;;;31.12;100.00;102475.94;10353294;28;20464;-78
2023/09/04 12:40:14;;;;;;;0.35;0.17;;;;;;;30.31;100.00;102457.34;10355317;28;20097;-77
2023/09/04 12:45:15;;;;;;;0.10;0.10;;;;;;;30.94;100.00;102462.31;10351106;28;20054;-78
2023/09/04 12:50:17;;;;;;;0.00;0.00;;;;;;;30.61;100.00;102443.97;10342083;28;20046;-80
2023/09/04 12:55:18;;;;;;;0.00;0.00;;;;;;;30.73;100.00;102448.00;10351189;28;20398;-78
2023/09/04 13:00:22;;;;;;;0.15;0.10;;;;;;;30.89;100.00;102440.34;10347282;28;20049;-78
2023/09/04 13:05:24;;;;;;;0.17;0.08;;;;;;;30.78;100.00;102423.91;10345906;28;20038;-78
2023/09/04 13:10:26;;;;;;;0.32;0.15;;;;;;;30.61;100.00;102420.03;10343910;28;20092;-78
2023/09/04 13:15:27;;;;;;;0.17;0.17;;;;;;;30.42;100.00;102416.25;10357361;28;20099;-78
2023/09/04 13:20:29;;;;;;;0.05;0.05;;;;;;;30.61;100.00;102417.38;10361407;28;20038;-77
2023/09/04 13:25:30;;;;;;;0.00;0.00;;;;;;;30.63;100.00;102409.34;10351931;28;20493;-78
2023/09/04 13:30:32;;;;;;;0.00;0.00;;;;;;;30.46;100.00;102417.88;10364686;28;20041;-77
2023/09/04 13:35:33;;;;;;;0.00;0.00;;;;;;;30.73;100.00;102408.09;10362531;28;20038;-78
2023/09/04 13:40:36;;;;;;;0.45;0.22;;;;;;;30.50;100.00;102403.53;10362634;28;20076;-77
2023/09/04 13:45:37;;;;;;;0.08;0.00;;;;;;;30.52;100.00;102391.09;10366071;28;20054;-78
2023/09/04 13:50:39;;;;;;;0.45;0.17;;;;;;;30.42;100.00;102382.56;10351191;28;20050;-78
2023/09/04 13:55:41;;;;;;;0.20;0.05;;;;;;;30.46;100.00;102381.50;10365092;28;20053;-78
2023/09/04 14:00:42;;;;;;;0.00;0.00;;;;;;;30.95;100.00;102378.91;10362614;28;20468;-78
2023/09/04 14:05:44;;;;;;;0.10;0.10;;;;;;;30.21;100.00;102370.84;10366752;28;20521;-77
2023/09/04 14:10:45;;;;;;;0.00;0.00;;;;;;;30.44;100.00;102361.22;10346628;28;20057;-78
2023/09/04 14:15:47;;;;;;;0.00;0.00;;;;;;;30.47;100.00;102366.44;10363875;28;20042;-78
2023/09/04 14:20:48;;;;;;;0.00;0.00;;;;;;;30.35;100.00;102346.47;10367170;28;20045;-78
2023/09/04 14:25:50;;;;;;;0.28;0.10;;;;;;;29.96;100.00;102349.56;10343230;28;20270;-80
2023/09/04 14:30:52;;;;;;;0.10;0.10;;;;;;;30.04;100.00;102345.75;10358314;28;20124;-79
2023/09/04 14:36:00;;;;;;;0.05;0.05;;;;;;;29.56;100.00;102336.63;10347189;28;20042;-79
2023/09/04 14:41:10;;;;;;;0.17;0.10;;;;;;;30.13;100.00;102335.69;10341176;28;20057;-79
2023/09/04 14:46:11;;;;;;;0.10;0.10;;;;;;;30.16;100.00;102324.97;10348714;28;20057;-76
2023/09/04 14:51:13;;;;;;;0.35;0.10;;;;;;;30.42;100.00;102326.72;10363982;28;20129;-78
2023/09/04 14:56:14;;;;;;;0.70;0.10;;;;;;;30.35;100.00;102331.38;10357249;28;20391;-80
2023/09/04 15:01:18;;;;;;;0.50;0.50;;;;;;;29.87;100.00;102332.13;10363053;28;20061;-76
2023/09/04 15:06:19;;;;;;;0.10;0.10;;;;;;;29.86;100.00;102327.72;10361035;28;20042;-80
2023/09/04 15:11:21;;;;;;;0.60;0.47;;;;;;;29.31;100.00;102320.59;10362731;28;20052;-78
2023/09/04 15:16:23;;;;;;;0.05;0.00;;;;;;;29.99;100.00;102323.75;10365473;28;20088;-80
2023/09/04 15:21:24;;;;;;;0.00;0.00;;;;;;;29.90;100.00;102308.97;10365078;28;20416;-77
2023/09/04 15:26:27;;;;;;;0.00;0.00;;;;;;;29.72;100.00;102310.44;10363488;28;20054;-80
2023/09/04 15:31:32;;;;;;;0.40;0.22;;;;;;;29.73;100.00;102303.34;10350090;28;20042;-77
2023/09/04 15:36:34;;;;;;;0.30;0.28;;;;;;;29.33;100.00;102308.16;10353450;28;20081;-76
2023/09/04 15:41:35;;;;;;;0.00;0.00;;;;;;;29.27;100.00;102308.31;10351744;28;20056;-76
2023/09/04 15:46:37;;;;;;;0.00;0.00;;;;;;;29.57;100.00;102305.63;10349535;28;20554;-76
2023/09/04 15:51:38;;;;;;;0.00;0.00;;;;;;;29.38;100.00;102300.03;10355384;28;20081;-77
2023/09/04 15:56:40;;;;;;;1.95;0.10;;;;;;;29.76;100.00;102295.28;10362794;28;20049;-77
2023/09/04 16:01:41;;;;;;;0.00;0.00;;;;;;;30.34;100.00;102292.44;10361936;28;20041;-76
2023/09/04 16:06:43;;;;;;;0.38;0.10;;;;;;;29.67;100.00;102290.28;10351746;28;20432;-78
2023/09/04 16:11:45;;;;;;;0.10;0.10;;;;;;;30.22;100.00;102292.84;10367832;28;20042;-79
2023/09/04 16:16:46;;;;;;;0.03;0.03;;;;;;;30.25;100.00;102282.13;10366435;28;20517;-78
2023/09/04 16:21:48;;;;;;;0.00;0.00;;;;;;;29.90;100.00;102274.44;10358591;28;20525;-80
2023/09/04 16:26:49;;;;;;;0.10;0.10;;;;;;;29.30;100.00;102265.75;10359869;28;20104;-80
2023/09/04 16:31:52;;;;;;;0.13;0.13;;;;;;;29.62;100.00;102268.31;10365053;28;20058;-79
2023/09/04 16:36:53;;;;;;;0.20;0.20;;;;;;;28.99;100.00;102266.72;10363352;28;20053;-80
2023/09/04 16:41:55;;;;;;;0.25;0.20;;;;;;;28.88;100.00;102260.84;10365882;28;20096;-78
2023/09/04 16:46:56;;;;;;;0.20;0.20;;;;;;;29.20;100.00;102259.00;10366711;28;20136;-81
2023/09/04 16:51:58;;;;;;;0.00;0.00;;;;;;;29.08;100.00;102252.28;10364866;28;20060;-80
2023/09/04 16:57:03;;;;;;;0.10;0.10;;;;;;;28.99;100.00;102256.09;10366250;28;20041;-79
2023/09/04 17:02:05;;;;;;;0.00;0.00;;;;;;;28.94;100.00;102244.72;10355663;28;20045;-79
2023/09/04 17:07:06;;;;;;;0.00;0.00;;;;;;;28.68;100.00;102246.38;10365584;28;20046;-79
2023/09/04 17:12:08;;;;;;;0.03;0.00;;;;;;;28.59;100.00;102236.03;10364667;28;20054;-79
2023/09/04 17:17:11;;;;;;;0.00;0.00;;;;;;;28.31;100.00;102236.81;10366822;28;21398;-79
2023/09/04 17:22:12;;;;;;;0.00;0.00;;;;;;;28.14;100.00;102240.78;10354304;28;20050;-79
2023/09/04 17:27:14;;;;;;;0.38;0.10;;;;;;;28.42;100.00;102229.41;10365964;28;20088;-79
2023/09/04 17:32:15;;;;;;;0.00;0.00;;;;;;;28.03;100.00;102224.31;10365686;28;20049;-79
2023/09/04 17:37:17;;;;;;;0.10;0.10;;;;;;;28.04;100.00;102223.38;10360688;28;20105;-81
2023/09/04 17:42:18;;;;;;;0.00;0.00;;;;;;;27.63;100.00;102227.97;10351679;28;20042;-80
2023/09/04 17:47:20;;;;;;;0.10;0.10;;;;;;;27.41;100.00;102233.75;10337475;28;20042;-77
2023/09/04 17:52:22;;;;;;;0.00;0.00;;;;;;;27.09;100.00;102216.84;10355842;28;20461;-80
2023/09/04 17:57:23;;;;;;;0.10;0.05;;;;;;;26.67;100.00;102207.16;10346355;28;20050;-80
2023/09/04 18:02:25;;;;;;;0.00;0.00;;;;;;;26.75;100.00;102207.91;10355840;28;20038;-81
2023/09/04 18:07:26;;;;;;;0.22;0.22;;;;;;;26.37;100.00;102206.03;10346581;28;20077;-80
2023/09/04 18:12:28;;;;;;;0.00;0.00;;;;;;;26.37;100.00;102200.75;10359505;28;20054;-80
2023/09/04 18:17:29;;;;;;;0.00;0.00;;;;;;;26.16;100.00;102202.91;10366742;28;20053;-80
2023/09/04 18:22:31;;;;;;;0.05;0.05;;;;;;;25.87;100.00;102211.31;10359525;28;20038;-81
2023/09/04 18:27:32;;;;;;;0.05;0.05;;;;;;;25.41;100.00;102212.97;10370712;28;20111;-79
2023/09/04 18:32:34;;;;;;;0.10;0.10;;;;;;;25.08;100.00;102220.44;10373271;28;20100;-79
2023/09/04 18:37:36;;;;;;;0.30;0.10;;;;;;;25.00;100.00;102217.94;10362014;28;20045;-77
2023/09/04 18:42:39;;;;;;;0.10;0.10;;;;;;;24.85;100.00;102213.72;10370130;28;20587;-79
2023/09/04 18:47:41;;;;;;;0.00;0.00;;;;;;;24.06;100.00;102212.84;10368830;28;20038;-78
2023/09/04 18:52:42;;;;;;;0.10;0.10;;;;;;;23.98;100.00;102216.44;10365322;28;20068;-79
2023/09/04 18:57:44;;;;;;;0.05;0.05;;;;;;;23.83;100.00;102217.41;10358899;28;20464;-81
2023/09/04 19:02:46;;;;;;;1.00;0.70;;;;;;;23.79;100.00;102219.19;10366338;28;20088;-79
2023/09/04 19:07:47;;;;;;;0.00;0.00;;;;;;;23.20;100.00;102208.22;10362705;28;20412;-80
2023/09/04 19:12:49;;;;;;;0.00;0.00;;;;;;;23.25;100.00;102206.44;10364406;28;20045;-78
2023/09/04 19:17:50;;;;;;;0.00;0.00;;;;;;;23.20;100.00;102203.84;10361538;28;20557;-79
2023/09/04 19:22:52;;;;;;;0.00;0.00;;;;;;;23.35;100.00;102192.34;10362398;28;20065;-79
2023/09/04 19:27:54;;;;;;;0.00;0.00;;;;;;;23.44;100.00;102192.28;10359568;28;20069;-80
2023/09/04 19:32:58;;;;;;;0.00;0.00;;;;;;;23.39;100.00;102183.56;10369563;28;20042;-80
2023/09/04 19:38:00;;;;;;;0.13;0.13;;;;;;;23.55;100.00;102178.19;10362468;28;20042;-79
2023/09/04 19:43:01;;;;;;;0.03;0.03;;;;;;;23.37;100.00;102163.44;10362596;28;20037;-78
2023/09/04 19:48:03;;;;;;;0.20;0.20;;;;;;;23.14;100.00;102161.81;10343042;28;20417;-80
2023/09/04 19:53:05;;;;;;;0.00;0.00;;;;;;;23.06;100.00;102153.94;10367336;28;20553;-80
2023/09/04 19:58:06;;;;;;;0.32;0.22;;;;;;;23.18;100.00;102153.03;10366444;28;20107;-78
2023/09/04 20:03:08;;;;;;;0.00;0.00;;;;;;;22.97;100.00;102159.28;10367074;28;20452;-78
2023/09/04 20:08:10;;;;;;;0.35;0.25;;;;;;;23.22;100.00;102165.28;10369013;28;20049;-78
2023/09/04 20:13:11;;;;;;;0.10;0.00;;;;;;;23.22;100.00;102161.75;10350169;28;20119;-79
2023/09/04 20:18:13;;;;;;;0.32;0.10;;;;;;;22.93;100.00;102144.41;10368027;28;20046;-78
2023/09/04 20:23:14;;;;;;;0.10;0.10;;;;;;;22.66;100.00;102131.41;10361020;28;20450;-78
2023/09/04 20:28:16;;;;;;;0.10;0.08;;;;;;;23.27;100.00;102131.06;10366544;28;20054;-79
2023/09/04 20:33:21;;;;;;;0.17;0.17;;;;;;;23.34;100.00;102122.25;10365545;28;20099;-78
2023/09/04 20:38:24;;;;;;;1.05;0.68;;;;;;;23.37;100.00;102116.94;10361747;28;20085;-80
2023/09/04 20:43:25;;;;;;;0.00;0.00;;;;;;;23.26;100.00;102113.56;10345705;28;20137;-79
2023/09/04 20:48:28;;;;;;;0.22;0.20;;;;;;;23.35;100.00;102108.19;10348337;28;20129;-81
2023/09/04 20:53:30;;;;;;;0.00;0.00;;;;;;;23.03;100.00;102111.94;10363552;28;20042;-78
2023/09/04 20:58:31;;;;;;;0.13;0.10;;;;;;;22.98;100.00;102098.81;10362974;28;20092;-78
2023/09/04 21:03:33;;;;;;;0.00;0.00;;;;;;;23.12;100.00;102093.44;10366083;28;20042;-79
2023/09/04 23:21:39;;;;;;;0.20;0.10;;;;;;;21.04;100.00;102021.56;10371841;28;20058;-79
2023/09/04 23:26:46;;;;;;;0.00;0.00;;;;;;;20.91;100.00;102024.19;10369348;28;20124;-80
2023/09/04 23:31:49;;;;;;;0.32;0.10;;;;;;;21.02;100.00;102024.19;10367175;28;20046;-79
2023/09/04 23:36:54;;;;;;;0.10;0.10;;;;;;;20.86;100.00;102028.56;10366038;28;20043;-79
2023/09/04 23:47:24;;;;;;;0.05;0.05;;;;;;;20.10;100.00;102027.47;10369909;28;20681;-79
2023/09/04 23:52:29;;;;;;;0.00;0.00;;;;;;;20.27;100.00;102025.78;10358726;28;20394;-79
2023/09/04 23:57:33;;;;;;;0.25;0.10;;;;;;;20.31;100.00;102017.94;10362499;28;20049;-78
